createdAt,value
2019-03-10T00:00:28.199Z,72.54
2019-03-10T00:02:56.656Z,72.43
2019-03-10T00:05:25.197Z,72.30
2019-03-10T00:07:53.779Z,72.45
2019-03-10T00:10:22.338Z,72.58
2019-03-10T00:12:51.072Z,73.22
2019-03-10T00:15:19.617Z,72.66
2019-03-10T00:17:48.453Z,73.02
2019-03-10T00:20:17.263Z,73.26
2019-03-10T00:22:46.022Z,73.13
2019-03-10T00:25:14.533Z,73.69
2019-03-10T00:27:43.049Z,73.89
2019-03-10T00:30:14.400Z,73.95
2019-03-10T00:32:42.999Z,73.89
2019-03-10T00:35:11.623Z,74.13
2019-03-10T00:37:40.455Z,73.83
2019-03-10T00:40:38.932Z,74.22
2019-03-10T00:43:43.432Z,74.23
2019-03-10T00:46:31.022Z,73.87
2019-03-10T00:49:11.291Z,74.35
2019-03-10T00:52:06.182Z,74.34
2019-03-10T00:54:34.646Z,74.62
2019-03-10T00:57:03.338Z,74.52
2019-03-10T00:59:32.191Z,74.62
2019-03-10T01:02:00.763Z,74.63
2019-03-10T01:04:29.331Z,74.79
2019-03-10T01:06:57.789Z,74.76
2019-03-10T01:09:26.240Z,74.96
2019-03-10T01:11:54.785Z,74.83
2019-03-10T01:14:23.554Z,74.87
2019-03-10T01:16:52.040Z,75.10
2019-03-10T01:19:20.877Z,75.29
2019-03-10T01:21:49.669Z,75.46
2019-03-10T01:24:18.119Z,75.59
2019-03-10T01:26:46.651Z,75.67
2019-03-10T01:29:15.159Z,75.83
2019-03-10T01:32:09.306Z,76.26
2019-03-10T01:34:58.680Z,76.40
2019-03-10T01:37:27.160Z,76.32
2019-03-10T01:39:55.716Z,76.02
2019-03-10T01:42:24.313Z,76.17
2019-03-10T01:44:53.027Z,76.48
2019-03-10T01:47:21.547Z,76.14
2019-03-10T01:49:50.039Z,76.50
2019-03-10T01:52:18.560Z,76.34
2019-03-10T01:54:47.300Z,76.50
2019-03-10T01:57:15.866Z,76.54
2019-03-10T01:59:44.352Z,76.69
2019-03-10T02:02:12.839Z,76.72
2019-03-10T02:04:41.380Z,76.63
2019-03-10T02:07:09.865Z,76.80
2019-03-10T02:09:38.373Z,76.83
2019-03-10T02:12:06.979Z,76.62
2019-03-10T02:14:35.529Z,76.95
2019-03-10T02:17:03.958Z,77.25
2019-03-10T02:19:32.706Z,77.29
2019-03-10T02:22:01.139Z,77.26
2019-03-10T02:24:29.624Z,77.28
2019-03-10T02:26:58.103Z,77.20
2019-03-10T02:29:29.284Z,77.19
2019-03-10T02:31:57.777Z,77.35
2019-03-10T02:34:26.145Z,77.40
2019-03-10T02:36:54.620Z,77.11
2019-03-10T02:39:23.074Z,77.05
2019-03-10T02:41:51.555Z,77.07
2019-03-10T02:44:20.301Z,77.00
2019-03-10T02:46:48.922Z,76.52
2019-03-10T02:49:17.309Z,76.76
2019-03-10T02:51:46.016Z,76.52
2019-03-10T02:54:14.436Z,76.42
2019-03-10T02:56:42.887Z,76.60
2019-03-10T02:59:11.616Z,76.27
2019-03-10T03:01:40.066Z,76.78
2019-03-10T03:04:08.660Z,76.32
2019-03-10T03:06:37.246Z,76.32
2019-03-10T03:09:06.446Z,76.40
2019-03-10T03:11:35.214Z,76.05
2019-03-10T03:14:05.673Z,76.19
2019-03-10T03:16:34.210Z,76.29
2019-03-10T03:19:02.676Z,76.38
2019-03-10T03:21:42.118Z,76.21
2019-03-10T03:24:01.617Z,76.43
2019-03-10T03:26:30.148Z,76.45
2019-03-10T03:28:58.685Z,76.59
2019-03-10T03:31:27.228Z,76.78
2019-03-10T03:33:55.742Z,77.17
2019-03-10T03:36:30.049Z,77.28
2019-03-10T03:39:07.329Z,77.48
2019-03-10T03:41:35.769Z,77.56
2019-03-10T03:44:04.296Z,77.69
2019-03-10T03:46:32.777Z,77.95
2019-03-10T03:49:01.217Z,78.29
2019-03-10T03:51:29.711Z,78.58
2019-03-10T03:53:58.237Z,78.56
2019-03-10T03:56:26.629Z,79.13
2019-03-10T03:58:55.086Z,79.50
2019-03-10T04:01:25.230Z,79.56
2019-03-10T04:03:53.796Z,79.56
2019-03-10T04:06:22.328Z,79.60
2019-03-10T04:08:50.839Z,79.69
2019-03-10T04:11:19.329Z,79.64
2019-03-10T04:13:47.842Z,79.82
2019-03-10T04:16:16.368Z,80.36
2019-03-10T04:18:44.906Z,80.40
2019-03-10T04:21:13.454Z,80.55
2019-03-10T04:23:41.989Z,80.75
2019-03-10T04:26:10.450Z,80.76
2019-03-10T04:28:38.950Z,80.75
2019-03-10T04:31:07.406Z,80.97
2019-03-10T04:33:35.853Z,80.97
2019-03-10T04:36:04.466Z,81.10
2019-03-10T04:38:33.130Z,81.38
2019-03-10T04:41:01.503Z,81.59
2019-03-10T04:43:30.012Z,81.55
2019-03-10T04:45:58.545Z,81.63
2019-03-10T04:48:27.053Z,81.79
2019-03-10T04:50:55.484Z,81.84
2019-03-10T04:53:23.935Z,81.87
2019-03-10T04:55:57.032Z,82.06
2019-03-10T04:58:26.001Z,81.75
2019-03-10T05:00:56.207Z,81.79
2019-03-10T05:03:24.692Z,82.16
2019-03-10T05:05:53.294Z,82.24
2019-03-10T05:08:21.797Z,82.34
2019-03-10T05:10:50.466Z,82.42
2019-03-10T05:13:19.010Z,82.33
2019-03-10T05:15:47.456Z,82.79
2019-03-10T05:18:15.953Z,82.85
2019-03-10T05:20:44.464Z,82.82
2019-03-10T05:23:29.719Z,82.64
2019-03-10T05:25:58.251Z,82.88
2019-03-10T05:28:27.083Z,82.95
2019-03-10T05:30:55.660Z,82.77
2019-03-10T05:33:24.225Z,82.83
2019-03-10T05:35:52.725Z,82.72
2019-03-10T05:38:21.190Z,82.70
2019-03-10T05:40:49.647Z,82.70
2019-03-10T05:43:18.273Z,82.70
2019-03-10T05:45:46.818Z,82.97
2019-03-10T05:48:15.522Z,83.17
2019-03-10T05:50:44.018Z,83.09
2019-03-10T05:53:12.656Z,83.17
2019-03-10T05:55:41.136Z,82.94
2019-03-10T05:58:09.597Z,82.79
2019-03-10T06:00:42.529Z,82.85
2019-03-10T06:03:08.420Z,82.96
2019-03-10T06:05:36.939Z,82.89
2019-03-10T06:08:05.451Z,82.86
2019-03-10T06:10:34.066Z,82.82
2019-03-10T06:13:02.439Z,82.60
2019-03-10T06:15:31.081Z,82.72
2019-03-10T06:17:59.619Z,82.73
2019-03-10T06:20:28.029Z,82.91
2019-03-10T06:22:56.478Z,82.87
2019-03-10T06:25:24.985Z,82.65
2019-03-10T06:27:53.590Z,82.57
2019-03-10T06:30:22.119Z,82.52
2019-03-10T06:32:50.602Z,82.53
2019-03-10T06:35:19.292Z,82.57
2019-03-10T06:37:47.858Z,82.23
2019-03-10T06:40:16.372Z,82.15
2019-03-10T06:42:44.825Z,81.36
2019-03-10T06:45:13.390Z,81.18
2019-03-10T06:47:41.830Z,80.48
2019-03-10T06:50:12.462Z,80.30
2019-03-10T06:52:41.076Z,79.64
2019-03-10T06:55:09.590Z,79.67
2019-03-10T06:57:38.077Z,79.52
2019-03-10T07:00:10.021Z,79.59
2019-03-10T07:02:38.515Z,79.61
2019-03-10T07:05:09.322Z,79.61
2019-03-10T07:07:38.017Z,79.83
2019-03-10T07:10:12.306Z,79.36
2019-03-10T07:12:41.375Z,79.36
2019-03-10T07:15:11.619Z,78.91
2019-03-10T07:17:40.115Z,79.10
2019-03-10T07:20:17.564Z,79.27
2019-03-10T07:22:46.510Z,78.64
2019-03-10T07:25:15.850Z,79.04
2019-03-10T07:27:51.629Z,78.70
2019-03-10T07:30:30.655Z,78.77
2019-03-10T07:33:18.729Z,78.50
2019-03-10T07:35:48.794Z,78.32
2019-03-10T07:38:18.908Z,77.99
2019-03-10T07:40:51.618Z,77.83
2019-03-10T07:43:21.707Z,77.45
2019-03-10T07:45:54.502Z,76.93
2019-03-10T07:48:27.335Z,77.08
2019-03-10T07:50:57.436Z,76.95
2019-03-10T07:53:30.341Z,76.89
2019-03-10T07:56:12.629Z,75.81
2019-03-10T07:58:42.732Z,75.39
2019-03-10T08:01:28.800Z,74.86
2019-03-10T08:04:16.935Z,74.61
2019-03-10T08:07:02.202Z,74.49
2019-03-10T08:09:32.557Z,74.93
2019-03-10T08:12:18.611Z,74.36
2019-03-10T08:14:49.062Z,73.65
2019-03-10T08:17:25.099Z,72.75
2019-03-10T08:20:00.658Z,72.78
2019-03-10T08:22:33.815Z,72.36
2019-03-10T08:25:03.937Z,71.81
2019-03-10T08:27:40.230Z,70.95
2019-03-10T08:30:29.412Z,71.57
2019-03-10T08:33:17.580Z,71.35
2019-03-10T08:35:59.290Z,71.01
2019-03-10T08:38:41.321Z,69.75
2019-03-10T08:41:11.470Z,69.59
2019-03-10T08:43:41.572Z,68.82
2019-03-10T08:46:11.667Z,68.22
2019-03-10T08:48:44.628Z,67.83
2019-03-10T08:51:17.452Z,68.02
2019-03-10T08:53:56.685Z,67.64
2019-03-10T08:56:32.995Z,66.88
2019-03-10T08:59:11.664Z,67.41
2019-03-10T09:01:53.639Z,67.63
2019-03-10T09:04:23.811Z,66.97
2019-03-10T09:06:53.916Z,66.79
2019-03-10T09:09:29.671Z,66.70
2019-03-10T09:12:19.031Z,66.76
2019-03-10T09:14:52.202Z,65.94
2019-03-10T09:17:30.960Z,65.61
2019-03-10T09:20:01.190Z,66.11
2019-03-10T09:22:37.554Z,65.85
2019-03-10T09:25:07.930Z,66.15
2019-03-10T09:27:56.506Z,65.87
2019-03-10T09:30:44.831Z,65.21
2019-03-10T09:33:17.368Z,63.79
2019-03-10T09:35:50.688Z,62.98
2019-03-10T09:38:20.874Z,62.72
2019-03-10T09:40:56.467Z,63.19
2019-03-10T09:43:34.187Z,63.26
2019-03-10T09:46:10.092Z,63.54
2019-03-10T09:48:56.716Z,63.54
2019-03-10T09:51:26.905Z,63.28
2019-03-10T09:53:56.967Z,62.71
2019-03-10T09:56:27.094Z,63.30
2019-03-10T09:59:00.454Z,63.72
2019-03-10T10:01:46.826Z,62.70
2019-03-10T10:04:19.587Z,63.56
2019-03-10T10:06:54.818Z,63.02
2019-03-10T10:09:33.615Z,63.40
2019-03-10T10:12:13.288Z,63.61
2019-03-10T10:14:50.142Z,64.32
2019-03-10T10:17:25.989Z,64.50
2019-03-10T10:20:11.201Z,64.63
2019-03-10T10:22:44.589Z,64.71
2019-03-10T10:25:29.701Z,65.10
2019-03-10T10:27:59.910Z,64.63
2019-03-10T10:30:46.095Z,64.97
2019-03-10T10:33:22.005Z,65.81
2019-03-10T10:35:57.838Z,65.38
2019-03-10T10:38:27.929Z,64.56
2019-03-10T10:41:14.883Z,64.88
2019-03-10T10:43:47.818Z,65.48
2019-03-10T10:46:17.974Z,66.17
2019-03-10T10:48:56.860Z,66.87
2019-03-10T10:51:29.947Z,67.47
2019-03-10T10:54:00.213Z,68.03
2019-03-10T10:56:46.008Z,68.53
2019-03-10T10:59:21.913Z,69.06
2019-03-10T11:01:55.036Z,70.23
2019-03-10T11:04:27.832Z,71.38
2019-03-10T11:07:03.593Z,71.68
2019-03-10T11:09:36.497Z,72.71
2019-03-10T11:12:15.269Z,72.31
2019-03-10T11:14:45.396Z,72.19
2019-03-10T11:17:18.465Z,73.63
2019-03-10T11:19:48.683Z,73.12
2019-03-10T11:22:28.148Z,75.73
2019-03-10T11:25:13.327Z,76.78
2019-03-10T11:27:43.506Z,76.54
2019-03-10T11:30:23.572Z,74.20
2019-03-10T11:32:53.847Z,73.32
2019-03-10T11:35:26.631Z,72.73
2019-03-10T11:37:56.862Z,71.54
2019-03-10T11:40:44.908Z,71.68
2019-03-10T11:43:15.039Z,71.73
2019-03-10T11:45:50.732Z,71.24
2019-03-10T11:48:20.856Z,69.91
2019-03-10T11:51:00.109Z,69.71
2019-03-10T11:53:36.767Z,69.23
2019-03-10T11:56:10.027Z,69.94
2019-03-10T11:58:46.320Z,69.35
2019-03-10T12:01:16.450Z,66.79
2019-03-10T12:03:46.708Z,67.44
2019-03-10T12:06:17.145Z,67.40
2019-03-10T12:08:47.502Z,66.68
2019-03-10T12:11:15.920Z,65.26
2019-03-10T12:13:44.537Z,65.72
2019-03-10T12:16:12.982Z,67.37
2019-03-10T12:18:41.492Z,68.47
2019-03-10T12:21:10.249Z,68.67
2019-03-10T12:23:38.768Z,67.79
2019-03-10T12:26:07.300Z,69.08
2019-03-10T12:28:35.837Z,68.68
2019-03-10T12:31:04.407Z,67.41
2019-03-10T12:33:32.946Z,70.32
2019-03-10T12:36:01.519Z,69.87
2019-03-10T12:38:30.161Z,70.13
2019-03-10T12:40:58.562Z,70.77
2019-03-10T12:43:27.095Z,71.03
2019-03-10T12:45:55.551Z,70.99
2019-03-10T12:48:24.023Z,71.08
2019-03-10T12:50:52.814Z,71.45
2019-03-10T12:53:21.573Z,72.39
2019-03-10T12:55:50.180Z,73.40
2019-03-10T12:58:18.717Z,73.88
2019-03-10T13:00:47.173Z,75.29
2019-03-10T13:03:15.673Z,77.05
2019-03-10T13:05:44.135Z,77.95
2019-03-10T13:08:13.043Z,79.42
2019-03-10T13:10:41.462Z,80.17
2019-03-10T13:13:10.077Z,80.34
2019-03-10T13:15:38.705Z,80.83
2019-03-10T13:18:07.634Z,81.49
2019-03-10T13:20:36.356Z,81.06
2019-03-10T13:23:05.220Z,81.06
2019-03-10T13:25:33.800Z,81.22
2019-03-10T13:28:02.271Z,81.39
2019-03-10T13:30:30.708Z,82.15
2019-03-10T13:32:59.160Z,81.27
2019-03-10T13:35:27.708Z,81.66
2019-03-10T13:37:56.206Z,81.12
2019-03-10T13:40:25.707Z,80.91
2019-03-10T13:42:54.239Z,81.22
2019-03-10T13:45:23.113Z,81.27
2019-03-10T13:47:51.629Z,81.30
2019-03-10T13:50:20.200Z,81.34
2019-03-10T13:52:48.699Z,81.03
2019-03-10T13:55:17.513Z,82.22
2019-03-10T13:57:46.188Z,82.08
2019-03-10T14:00:25.932Z,81.80
2019-03-10T14:02:54.424Z,80.87
2019-03-10T14:05:23.015Z,80.80
2019-03-10T14:07:51.612Z,81.01
2019-03-10T14:10:20.224Z,80.88
2019-03-10T14:12:58.592Z,80.79
2019-03-10T14:15:27.166Z,80.56
2019-03-10T14:17:55.625Z,81.43
2019-03-10T14:20:24.086Z,81.12
2019-03-10T14:22:52.478Z,82.04
2019-03-10T14:25:21.056Z,83.49
2019-03-10T14:27:50.053Z,83.31
2019-03-10T14:30:19.604Z,83.88
2019-03-10T14:32:48.094Z,83.04
2019-03-10T14:35:16.629Z,82.31
2019-03-10T14:37:45.169Z,83.31
2019-03-10T14:40:21.340Z,82.09
2019-03-10T14:42:49.866Z,81.97
2019-03-10T14:45:18.890Z,80.77
2019-03-10T14:47:47.443Z,81.51
2019-03-10T14:50:17.779Z,82.05
2019-03-10T14:52:46.405Z,82.30
2019-03-10T14:55:20.642Z,82.70
2019-03-10T14:57:49.304Z,83.16
2019-03-10T15:00:22.968Z,82.60
2019-03-10T15:02:51.568Z,82.71
2019-03-10T15:05:20.036Z,83.03
2019-03-10T15:07:48.681Z,83.26
2019-03-10T15:10:17.210Z,82.71
2019-03-10T15:12:45.860Z,82.44
2019-03-10T15:15:22.841Z,82.73
2019-03-10T15:17:50.676Z,82.71
2019-03-10T15:20:21.449Z,83.34
2019-03-10T15:22:49.605Z,83.94
2019-03-10T15:25:20.144Z,82.98
2019-03-10T15:27:48.648Z,82.76
2019-03-10T15:30:18.465Z,82.73
2019-03-10T15:32:47.070Z,82.04
2019-03-10T15:35:15.837Z,82.11
2019-03-10T15:37:44.410Z,82.54
2019-03-10T15:40:15.084Z,82.57
2019-03-10T15:42:44.228Z,82.72
2019-03-10T15:45:15.144Z,83.26
2019-03-10T15:47:43.660Z,83.61
2019-03-10T15:50:23.984Z,83.62
2019-03-10T15:52:52.416Z,84.15
2019-03-10T15:55:20.970Z,84.95
2019-03-10T15:57:50.752Z,85.62
2019-03-10T16:00:21.482Z,85.71
2019-03-10T16:02:49.995Z,85.97
2019-03-10T16:05:18.548Z,86.20
2019-03-10T16:07:46.970Z,86.94
2019-03-10T16:10:16.022Z,87.21
2019-03-10T16:12:44.801Z,87.44
2019-03-10T16:15:19.343Z,87.95
2019-03-10T16:17:48.750Z,88.45
2019-03-10T16:20:17.271Z,88.53
2019-03-10T16:22:45.743Z,88.04
2019-03-10T16:25:15.847Z,88.28
2019-03-10T16:27:44.484Z,88.30
2019-03-10T16:30:20.846Z,89.10
2019-03-10T16:32:49.939Z,88.45
2019-03-10T16:35:18.566Z,88.98
2019-03-10T16:37:47.421Z,88.87
2019-03-10T16:40:17.834Z,89.15
2019-03-10T16:42:46.350Z,89.11
2019-03-10T16:45:25.068Z,89.36
2019-03-10T16:47:53.842Z,89.19
2019-03-10T16:50:24.711Z,89.52
2019-03-10T16:52:53.417Z,89.69
2019-03-10T16:55:21.920Z,90.05
2019-03-10T16:57:50.539Z,90.39
2019-03-10T17:00:22.311Z,89.56
2019-03-10T17:02:52.034Z,88.82
2019-03-10T17:05:21.230Z,88.60
2019-03-10T17:07:49.820Z,88.71
2019-03-10T17:10:21.423Z,89.23
2019-03-10T17:12:50.057Z,90.66
2019-03-10T17:15:20.623Z,90.18
2019-03-10T17:17:49.227Z,89.77
2019-03-10T17:20:18.458Z,90.46
2019-03-10T17:22:47.267Z,89.79
2019-03-10T17:25:16.355Z,90.64
2019-03-10T17:27:45.295Z,91.50
2019-03-10T17:30:17.208Z,90.88
2019-03-10T17:32:45.853Z,91.18
2019-03-10T17:35:14.650Z,90.64
2019-03-10T17:37:43.193Z,90.74
2019-03-10T17:40:15.081Z,90.93
2019-03-10T17:42:43.705Z,91.25
2019-03-10T17:45:16.735Z,92.56
2019-03-10T17:47:45.238Z,91.36
2019-03-10T17:50:13.965Z,91.26
2019-03-10T17:52:42.570Z,91.29
2019-03-10T17:55:15.366Z,91.79
2019-03-10T17:57:44.031Z,90.77
2019-03-10T18:00:18.209Z,91.50
2019-03-10T18:02:46.822Z,90.89
2019-03-10T18:05:15.353Z,90.54
2019-03-10T18:07:43.868Z,90.79
2019-03-10T18:10:18.946Z,90.84
2019-03-10T18:12:47.526Z,90.36
2019-03-10T18:15:17.537Z,91.71
2019-03-10T18:17:46.237Z,91.44
2019-03-10T18:20:16.219Z,92.30
2019-03-10T18:22:44.871Z,92.43
2019-03-10T18:25:13.793Z,92.69
2019-03-10T18:27:42.531Z,92.76
2019-03-10T18:30:17.031Z,92.59
2019-03-10T18:32:45.610Z,92.30
2019-03-10T18:35:14.559Z,92.18
2019-03-10T18:37:43.333Z,92.73
2019-03-10T18:40:14.720Z,93.04
2019-03-10T18:42:43.203Z,93.39
2019-03-10T18:45:14.241Z,91.67
2019-03-10T18:47:43.077Z,90.94
2019-03-10T18:50:14.628Z,91.94
2019-03-10T18:52:43.517Z,91.64
2019-03-10T18:55:13.716Z,92.30
2019-03-10T18:57:42.324Z,92.25
2019-03-10T19:00:14.218Z,91.76
2019-03-10T19:02:42.733Z,91.53
2019-03-10T19:05:12.017Z,91.49
2019-03-10T19:07:40.753Z,91.74
2019-03-10T19:10:11.283Z,92.16
2019-03-10T19:12:39.919Z,92.65
2019-03-10T19:15:14.577Z,92.71
2019-03-10T19:17:43.131Z,92.78
2019-03-10T19:20:13.464Z,92.84
2019-03-10T19:22:42.054Z,92.75
2019-03-10T19:25:12.386Z,92.89
2019-03-10T19:27:40.933Z,93.05
2019-03-10T19:30:22.702Z,93.24
2019-03-10T19:32:51.260Z,92.60
2019-03-10T19:35:19.886Z,92.80
2019-03-10T19:37:48.359Z,92.65
2019-03-10T19:40:24.178Z,92.18
2019-03-10T19:42:52.896Z,92.29
2019-03-10T19:45:23.275Z,92.09
2019-03-10T19:47:52.171Z,92.19
2019-03-10T19:50:23.804Z,91.82
2019-03-10T19:52:52.435Z,92.16
2019-03-10T19:55:21.151Z,91.62
2019-03-10T19:57:49.776Z,92.37
2019-03-10T20:00:19.291Z,93.09
2019-03-10T20:02:47.927Z,92.52
2019-03-10T20:05:16.516Z,92.12
2019-03-10T20:07:46.052Z,92.23
2019-03-10T20:10:18.462Z,92.25
2019-03-10T20:12:47.966Z,92.90
2019-03-10T20:15:21.482Z,92.41
2019-03-10T20:17:50.432Z,91.99
2019-03-10T20:20:30.465Z,92.57
2019-03-10T20:23:01.204Z,91.99
2019-03-10T20:25:29.421Z,92.03
2019-03-10T20:27:57.992Z,91.95
2019-03-10T20:30:27.438Z,91.76
2019-03-10T20:32:56.030Z,92.70
2019-03-10T20:35:24.617Z,92.04
2019-03-10T20:37:53.323Z,91.61
2019-03-10T20:40:24.187Z,92.55
2019-03-10T20:42:52.821Z,92.09
2019-03-10T20:45:24.341Z,92.67
2019-03-10T20:47:52.453Z,92.70
2019-03-10T20:50:21.524Z,93.03
2019-03-10T20:52:50.315Z,93.17
2019-03-10T20:55:18.855Z,93.06
2019-03-10T20:57:47.472Z,93.78
2019-03-10T21:00:22.029Z,93.56
2019-03-10T21:02:50.636Z,93.61
2019-03-10T21:05:19.220Z,93.58
2019-03-10T21:07:48.279Z,93.74
2019-03-10T21:10:18.915Z,93.29
2019-03-10T21:12:47.570Z,93.23
2019-03-10T21:15:18.400Z,93.27
2019-03-10T21:17:47.048Z,93.13
2019-03-10T21:20:17.991Z,93.16
2019-03-10T21:22:47.022Z,93.08
2019-03-10T21:25:23.391Z,93.27
2019-03-10T21:27:52.328Z,93.64
2019-03-10T21:30:23.991Z,93.72
2019-03-10T21:32:52.697Z,93.89
2019-03-10T21:35:21.272Z,93.51
2019-03-10T21:37:49.873Z,94.25
2019-03-10T21:40:25.688Z,93.84
2019-03-10T21:42:54.247Z,94.39
2019-03-10T21:45:22.852Z,94.89
2019-03-10T21:47:51.462Z,94.40
2019-03-10T21:50:20.420Z,95.76
2019-03-10T21:52:49.151Z,95.97
2019-03-10T21:55:18.224Z,96.14
2019-03-10T21:57:46.767Z,96.46
2019-03-10T22:00:21.601Z,96.47
2019-03-10T22:02:50.216Z,96.09
2019-03-10T22:05:19.033Z,96.17
2019-03-10T22:07:48.039Z,95.46
2019-03-10T22:10:26.890Z,95.40
2019-03-10T22:12:48.919Z,95.96
2019-03-10T22:15:18.427Z,95.93
2019-03-10T22:17:47.119Z,96.79
2019-03-10T22:20:16.555Z,96.06
2019-03-10T22:22:49.322Z,96.63
2019-03-10T22:25:15.583Z,97.14
2019-03-10T22:27:45.666Z,97.54
2019-03-10T22:30:18.861Z,97.34
2019-03-10T22:32:47.379Z,97.27
2019-03-10T22:35:15.955Z,96.56
2019-03-10T22:37:44.394Z,96.30
2019-03-10T22:40:14.909Z,96.56
2019-03-10T22:42:43.514Z,96.66
2019-03-10T22:45:17.525Z,97.00
2019-03-10T22:47:46.084Z,96.99
2019-03-10T22:50:15.379Z,97.04
2019-03-10T22:52:43.978Z,96.86
2019-03-10T22:55:13.581Z,97.12
2019-03-10T22:57:42.434Z,96.58
2019-03-10T23:00:23.363Z,96.90
2019-03-10T23:02:51.938Z,96.54
2019-03-10T23:05:20.751Z,96.94
2019-03-10T23:07:49.656Z,96.62
2019-03-10T23:10:18.751Z,97.33
2019-03-10T23:12:47.696Z,97.47
2019-03-10T23:15:16.406Z,97.06
2019-03-10T23:17:46.023Z,97.61
2019-03-10T23:20:15.615Z,97.89
2019-03-10T23:22:44.117Z,97.80
2019-03-10T23:25:15.345Z,97.55
2019-03-10T23:27:44.018Z,97.77
2019-03-10T23:30:17.829Z,97.86
2019-03-10T23:32:46.383Z,97.52
2019-03-10T23:35:15.333Z,97.96
2019-03-10T23:37:44.927Z,97.52
2019-03-10T23:40:17.221Z,96.75
2019-03-10T23:42:46.007Z,96.57
2019-03-10T23:45:16.624Z,96.83
2019-03-10T23:47:45.105Z,97.13
2019-03-10T23:50:15.589Z,97.07
2019-03-10T23:52:44.151Z,96.17
2019-03-10T23:55:14.027Z,96.37
2019-03-10T23:57:42.484Z,96.56
